createdAt,value
2022-09-15T00:00:49.804Z,11.50
2022-09-15T00:01:49.879Z,11.80
2022-09-15T00:02:49.880Z,11.00
2022-09-15T00:03:49.812Z,11.60
2022-09-15T00:04:49.769Z,10.70
2022-09-15T00:05:49.751Z,9.50
2022-09-15T00:06:49.740Z,9.20
2022-09-15T00:07:49.736Z,9.00
2022-09-15T00:08:49.911Z,11.50
2022-09-15T00:09:49.707Z,9.00
2022-09-15T00:10:49.693Z,11.30
2022-09-15T00:11:49.682Z,10.30
2022-09-15T00:12:49.669Z,9.50
2022-09-15T00:13:49.956Z,11.00
2022-09-15T00:14:49.671Z,11.00
2022-09-15T00:15:49.643Z,10.90
2022-09-15T00:16:49.690Z,11.90
2022-09-15T00:17:49.641Z,8.70
2022-09-15T00:18:49.604Z,10.00
2022-09-15T00:19:49.613Z,10.50
2022-09-15T00:20:49.581Z,11.30
2022-09-15T00:21:49.590Z,12.10
2022-09-15T00:22:49.559Z,12.60
2022-09-15T00:23:49.547Z,12.30
2022-09-15T00:24:49.553Z,10.60
2022-09-15T00:25:49.552Z,12.50
2022-09-15T00:26:49.517Z,14.40
2022-09-15T00:27:49.510Z,14.50
2022-09-15T00:28:49.494Z,15.10
2022-09-15T00:29:49.500Z,18.30
2022-09-15T00:30:49.552Z,14.20
2022-09-15T00:31:49.475Z,14.50
2022-09-15T00:32:49.533Z,17.30
2022-09-15T00:33:49.432Z,13.70
2022-09-15T00:34:49.422Z,12.90
2022-09-15T00:35:49.451Z,12.10
2022-09-15T00:36:49.419Z,11.90
2022-09-15T00:37:49.388Z,17.50
2022-09-15T00:38:49.379Z,11.80
2022-09-15T00:39:49.429Z,11.80
2022-09-15T00:40:49.354Z,13.30
2022-09-15T00:41:49.363Z,13.80
2022-09-15T00:42:49.377Z,12.10
2022-09-15T00:43:49.318Z,12.70
2022-09-15T00:44:49.311Z,11.30
2022-09-15T00:45:49.393Z,11.70
2022-09-15T00:47:04.265Z,12.20
2022-09-15T00:47:50.275Z,10.20
2022-09-15T00:48:49.263Z,13.80
2022-09-15T00:49:49.251Z,11.80
2022-09-15T00:50:49.249Z,10.90
2022-09-15T00:51:49.454Z,11.10
2022-09-15T00:52:49.331Z,11.40
2022-09-15T00:53:49.205Z,13.40
2022-09-15T00:54:49.209Z,10.90
2022-09-15T00:55:49.197Z,9.70
2022-09-15T00:56:49.203Z,11.10
2022-09-15T00:57:49.172Z,10.20
2022-09-15T00:58:49.154Z,10.30
2022-09-15T00:59:49.147Z,12.30
2022-09-15T01:00:49.201Z,12.40
2022-09-15T01:01:49.223Z,12.50
2022-09-15T01:02:49.131Z,13.50
2022-09-15T01:03:49.116Z,17.20
2022-09-15T01:04:49.144Z,13.60
2022-09-15T01:05:49.074Z,15.90
2022-09-15T01:06:49.063Z,12.60
2022-09-15T01:07:49.157Z,15.10
2022-09-15T01:08:49.038Z,12.70
2022-09-15T01:09:49.055Z,13.80
2022-09-15T01:10:49.021Z,12.20
2022-09-15T01:11:49.005Z,13.20
2022-09-15T01:12:48.994Z,11.60
2022-09-15T01:13:48.983Z,13.30
2022-09-15T01:14:49.036Z,14.30
2022-09-15T01:15:49.005Z,13.30
2022-09-15T01:16:49.028Z,14.40
2022-09-15T01:17:48.940Z,16.30
2022-09-15T01:18:48.945Z,14.60
2022-09-15T01:19:48.920Z,17.50
2022-09-15T01:20:48.906Z,12.40
2022-09-15T01:21:48.913Z,17.50
2022-09-15T01:22:48.880Z,21.00
2022-09-15T01:23:48.917Z,17.40
2022-09-15T01:24:48.939Z,15.40
2022-09-15T01:25:48.848Z,17.60
2022-09-15T01:26:48.834Z,23.20
2022-09-15T01:27:48.830Z,20.40
2022-09-15T01:28:48.840Z,18.10
2022-09-15T01:29:48.821Z,21.40
2022-09-15T01:30:48.878Z,21.50
2022-09-15T01:31:48.807Z,16.00
2022-09-15T01:32:48.787Z,19.00
2022-09-15T01:33:49.077Z,18.10
2022-09-15T01:34:48.763Z,20.10
2022-09-15T01:35:48.731Z,21.00
2022-09-15T01:36:48.732Z,16.90
2022-09-15T01:37:48.713Z,16.80
2022-09-15T01:38:48.706Z,22.70
2022-09-15T01:39:48.758Z,25.40
2022-09-15T01:40:48.697Z,24.90
2022-09-15T01:41:48.665Z,24.20
2022-09-15T01:42:48.662Z,23.60
2022-09-15T01:43:48.680Z,32.30
2022-09-15T01:44:48.629Z,22.90
2022-09-15T01:45:48.643Z,31.60
2022-09-15T01:46:48.609Z,31.70
2022-09-15T01:47:48.602Z,28.20
2022-09-15T01:48:48.584Z,27.70
2022-09-15T01:49:48.594Z,33.10
2022-09-15T01:50:48.562Z,35.30
2022-09-15T01:51:48.553Z,40.70
2022-09-15T01:52:48.540Z,40.40
2022-09-15T01:53:48.535Z,34.80
2022-09-15T01:54:48.538Z,42.80
2022-09-15T01:55:48.520Z,34.50
2022-09-15T01:56:48.565Z,36.40
2022-09-15T01:57:48.483Z,31.50
2022-09-15T01:58:48.490Z,30.90
2022-09-15T01:59:48.680Z,33.70
2022-09-15T02:00:48.520Z,30.10
2022-09-15T02:01:48.515Z,27.50
2022-09-15T02:02:48.426Z,35.10
2022-09-15T02:03:48.410Z,41.80
2022-09-15T02:04:48.407Z,37.40
2022-09-15T02:05:48.422Z,32.70
2022-09-15T02:06:48.398Z,37.00
2022-09-15T02:07:48.386Z,35.30
2022-09-15T02:08:48.366Z,38.60
2022-09-15T02:09:48.344Z,31.60
2022-09-15T02:10:48.345Z,32.40
2022-09-15T02:11:48.337Z,29.00
2022-09-15T02:12:48.333Z,38.30
2022-09-15T02:13:48.305Z,33.20
2022-09-15T02:14:48.291Z,31.00
2022-09-15T02:15:48.315Z,31.70
2022-09-15T02:16:48.347Z,26.30
2022-09-15T02:17:48.254Z,29.80
2022-09-15T02:18:48.243Z,31.90
2022-09-15T02:19:48.268Z,30.60
2022-09-15T02:20:48.357Z,32.30
2022-09-15T02:21:48.212Z,32.20
2022-09-15T02:22:48.224Z,29.30
2022-09-15T02:23:48.188Z,32.20
2022-09-15T02:24:48.174Z,33.30
2022-09-15T02:25:48.161Z,33.00
2022-09-15T02:26:48.181Z,33.20
2022-09-15T02:27:48.237Z,35.00
2022-09-15T02:28:48.159Z,36.10
2022-09-15T02:29:48.121Z,32.90
2022-09-15T02:30:48.246Z,29.70
2022-09-15T02:31:48.247Z,26.10
2022-09-15T02:32:48.084Z,26.80
2022-09-15T02:33:48.074Z,31.00
2022-09-15T02:34:48.065Z,30.30
2022-09-15T02:35:48.053Z,31.60
2022-09-15T02:36:48.058Z,29.30
2022-09-15T02:37:48.029Z,30.20
2022-09-15T02:38:48.021Z,29.70
2022-09-15T02:39:48.080Z,28.60
2022-09-15T02:40:47.994Z,27.70
2022-09-15T02:41:48.017Z,28.70
2022-09-15T02:42:47.971Z,38.00
2022-09-15T02:43:48.000Z,37.60
2022-09-15T02:44:47.952Z,29.60
2022-09-15T02:45:48.002Z,30.70
2022-09-15T02:46:47.931Z,29.90
2022-09-15T02:47:47.913Z,31.60
2022-09-15T02:48:47.929Z,34.20
2022-09-15T02:49:47.894Z,37.60
2022-09-15T02:50:47.914Z,33.40
2022-09-15T02:51:47.899Z,34.90
2022-09-15T02:52:47.895Z,38.70
2022-09-15T02:53:47.852Z,37.20
2022-09-15T02:54:47.836Z,34.30
2022-09-15T02:55:47.825Z,33.30
2022-09-15T02:56:47.836Z,50.00
2022-09-15T02:57:47.823Z,32.70
2022-09-15T02:58:47.792Z,36.10
2022-09-15T02:59:47.794Z,38.30
2022-09-15T03:00:47.837Z,33.80
2022-09-15T03:01:47.866Z,35.40
2022-09-15T03:02:47.814Z,33.40
2022-09-15T03:03:47.754Z,36.40
2022-09-15T03:04:47.738Z,35.00
2022-09-15T03:05:47.711Z,29.50
2022-09-15T03:06:47.718Z,35.60
2022-09-15T03:07:47.731Z,37.90
2022-09-15T03:08:47.688Z,35.90
2022-09-15T03:09:47.667Z,32.50
2022-09-15T03:10:47.656Z,37.70
2022-09-15T03:11:47.653Z,40.00
2022-09-15T03:12:47.658Z,47.30
2022-09-15T03:13:47.625Z,47.70
2022-09-15T03:14:47.614Z,35.70
2022-09-15T03:15:47.615Z,38.10
2022-09-15T03:16:47.683Z,41.30
2022-09-15T03:17:47.584Z,33.90
2022-09-15T03:18:47.568Z,33.30
2022-09-15T03:19:47.554Z,31.80
2022-09-15T03:20:47.549Z,38.50
2022-09-15T03:21:47.557Z,36.30
2022-09-15T03:22:47.528Z,46.20
2022-09-15T03:23:47.511Z,44.70
2022-09-15T03:24:47.574Z,40.40
2022-09-15T03:25:47.486Z,37.50
2022-09-15T03:26:47.475Z,36.50
2022-09-15T03:27:47.484Z,34.80
2022-09-15T03:28:47.455Z,35.60
2022-09-15T03:29:47.441Z,34.60
2022-09-15T03:30:47.436Z,35.80
2022-09-15T03:31:47.586Z,33.20
2022-09-15T03:32:47.409Z,43.00
2022-09-15T03:33:47.419Z,32.50
2022-09-15T03:34:47.388Z,36.90
2022-09-15T03:35:47.371Z,37.90
2022-09-15T03:36:47.369Z,34.50
2022-09-15T03:37:47.353Z,36.10
2022-09-15T03:38:47.363Z,34.00
2022-09-15T03:39:47.361Z,35.50
2022-09-15T03:40:47.316Z,33.40
2022-09-15T03:41:47.332Z,34.90
2022-09-15T03:42:47.314Z,40.50
2022-09-15T03:43:47.282Z,37.30
2022-09-15T03:44:47.295Z,31.90
2022-09-15T03:45:47.322Z,34.40
2022-09-15T03:46:47.253Z,39.20
2022-09-15T03:47:47.255Z,35.80
2022-09-15T03:48:47.254Z,33.30
2022-09-15T03:49:47.224Z,34.70
2022-09-15T03:50:47.206Z,37.90
2022-09-15T03:51:47.197Z,36.60
2022-09-15T03:52:47.181Z,36.80
2022-09-15T03:53:47.191Z,37.10
2022-09-15T03:54:47.190Z,38.50
2022-09-15T03:55:47.145Z,34.20
2022-09-15T03:56:47.144Z,31.70
2022-09-15T03:57:47.146Z,36.50
2022-09-15T03:58:47.137Z,36.70
2022-09-15T03:59:47.104Z,39.90
2022-09-15T04:00:47.184Z,38.20
2022-09-15T04:01:47.193Z,35.70
2022-09-15T04:02:47.073Z,39.90
2022-09-15T04:03:50.822Z,37.10
2022-09-15T04:04:47.045Z,40.60
2022-09-15T04:05:47.066Z,39.60
2022-09-15T04:06:47.024Z,38.80
2022-09-15T04:07:47.068Z,36.50
2022-09-15T04:08:47.003Z,36.10
2022-09-15T04:09:47.010Z,40.30
2022-09-15T04:10:46.979Z,37.60
2022-09-15T04:11:46.965Z,36.50
2022-09-15T04:12:46.977Z,38.20
2022-09-15T04:13:46.968Z,39.80
2022-09-15T04:14:46.931Z,40.10
2022-09-15T04:15:46.921Z,35.50
2022-09-15T04:16:46.994Z,45.20
2022-09-15T04:17:46.899Z,42.40
2022-09-15T04:18:46.919Z,37.70
2022-09-15T04:19:46.951Z,42.20
2022-09-15T04:20:46.885Z,40.50
2022-09-15T04:21:46.886Z,40.80
2022-09-15T04:22:46.852Z,42.90
2022-09-15T04:23:46.863Z,43.20
2022-09-15T04:24:46.836Z,41.20
2022-09-15T04:25:46.813Z,41.40
2022-09-15T04:26:46.802Z,42.10
2022-09-15T04:27:46.794Z,44.50
2022-09-15T04:28:46.814Z,46.10
2022-09-15T04:29:46.770Z,41.40
2022-09-15T04:30:46.762Z,45.10
2022-09-15T04:31:46.869Z,44.50
2022-09-15T04:32:46.735Z,41.20
2022-09-15T04:33:46.727Z,45.50
2022-09-15T04:34:46.734Z,38.80
2022-09-15T04:35:46.712Z,40.50
2022-09-15T04:36:46.718Z,41.50
2022-09-15T04:37:46.705Z,43.80
2022-09-15T04:38:46.695Z,39.90
2022-09-15T04:39:46.760Z,37.50
2022-09-15T04:40:46.649Z,40.20
2022-09-15T04:41:46.627Z,40.50
2022-09-15T04:42:46.669Z,39.80
2022-09-15T04:43:46.629Z,42.50
2022-09-15T04:44:46.601Z,48.10
2022-09-15T04:45:46.586Z,42.00
2022-09-15T04:46:46.668Z,42.30
2022-09-15T04:47:46.591Z,42.00
2022-09-15T04:48:46.587Z,43.70
2022-09-15T04:49:46.548Z,41.10
2022-09-15T04:50:46.530Z,42.20
2022-09-15T04:51:46.539Z,44.50
2022-09-15T04:52:46.526Z,43.80
2022-09-15T04:53:46.496Z,49.50
2022-09-15T04:54:46.495Z,46.30
2022-09-15T04:55:46.493Z,41.50
2022-09-15T04:56:46.494Z,45.70
2022-09-15T04:57:46.449Z,46.20
2022-09-15T04:58:46.443Z,49.00
2022-09-15T04:59:46.444Z,45.10
2022-09-15T05:00:46.482Z,42.10
2022-09-15T05:01:46.437Z,44.50
2022-09-15T05:02:46.418Z,42.60
2022-09-15T05:03:46.424Z,42.30
2022-09-15T05:04:46.371Z,49.60
2022-09-15T05:05:46.361Z,45.10
2022-09-15T05:06:46.343Z,51.30
2022-09-15T05:07:46.374Z,47.70
2022-09-15T05:08:46.349Z,41.90
2022-09-15T05:09:46.336Z,44.50
2022-09-15T05:10:46.303Z,47.60
2022-09-15T05:11:46.290Z,46.40
2022-09-15T05:12:46.280Z,43.60
2022-09-15T05:13:46.267Z,44.30
2022-09-15T05:14:46.257Z,41.90
2022-09-15T05:15:46.306Z,44.80
2022-09-15T05:16:46.240Z,45.10
2022-09-15T05:17:46.225Z,43.60
2022-09-15T05:18:46.234Z,44.90
2022-09-15T05:19:46.208Z,53.00
2022-09-15T05:20:46.186Z,45.80
2022-09-15T05:21:46.203Z,46.10
2022-09-15T05:22:46.164Z,45.80
2022-09-15T05:23:46.209Z,44.00
2022-09-15T05:24:46.162Z,44.40
2022-09-15T05:25:46.131Z,37.90
2022-09-15T05:26:46.150Z,37.80
2022-09-15T05:27:46.114Z,42.60
2022-09-15T05:28:46.108Z,41.90
2022-09-15T05:29:46.091Z,42.70
2022-09-15T05:30:46.095Z,44.70
2022-09-15T05:31:46.144Z,44.20
2022-09-15T05:32:46.053Z,46.10
2022-09-15T05:33:46.044Z,42.70
2022-09-15T05:34:46.033Z,46.60
2022-09-15T05:35:46.041Z,44.90
2022-09-15T05:36:46.010Z,41.00
2022-09-15T05:37:46.000Z,42.50
2022-09-15T05:38:45.984Z,38.90
2022-09-15T05:39:46.050Z,40.40
2022-09-15T05:40:45.982Z,38.30
2022-09-15T05:41:45.955Z,36.10
2022-09-15T05:42:45.940Z,40.10
2022-09-15T05:43:45.952Z,43.30
2022-09-15T05:44:45.920Z,40.20
2022-09-15T05:45:45.913Z,38.70
2022-09-15T05:46:45.953Z,35.50
2022-09-15T05:47:45.913Z,36.20
2022-09-15T05:48:45.875Z,36.60
2022-09-15T05:49:45.873Z,39.70
2022-09-15T05:50:45.853Z,39.60
2022-09-15T05:51:45.842Z,36.50
2022-09-15T05:52:45.850Z,36.80
2022-09-15T05:53:45.837Z,35.70
2022-09-15T05:54:45.828Z,33.80
2022-09-15T05:55:45.810Z,34.70
2022-09-15T05:56:45.784Z,38.40
2022-09-15T05:57:45.773Z,38.20
2022-09-15T05:58:45.779Z,38.20
2022-09-15T05:59:45.752Z,37.80
2022-09-15T06:00:45.759Z,40.40
2022-09-15T06:01:45.823Z,42.10
2022-09-15T06:02:45.745Z,40.40
2022-09-15T06:03:45.706Z,36.20
2022-09-15T06:04:45.693Z,39.20
2022-09-15T06:05:45.707Z,42.40
2022-09-15T06:06:45.671Z,43.40
2022-09-15T06:07:45.665Z,39.00
2022-09-15T06:08:47.974Z,34.70
2022-09-15T06:09:45.640Z,38.70
2022-09-15T06:10:45.626Z,38.50
2022-09-15T06:11:45.631Z,35.80
2022-09-15T06:12:45.602Z,34.40
2022-09-15T06:13:45.610Z,35.50
2022-09-15T06:14:45.580Z,33.00
2022-09-15T06:15:45.602Z,28.80
2022-09-15T06:16:45.554Z,35.90
2022-09-15T06:17:45.543Z,36.60
2022-09-15T06:18:45.614Z,34.50
2022-09-15T06:19:45.529Z,39.10
2022-09-15T06:20:45.513Z,34.20
2022-09-15T06:21:45.525Z,38.10
2022-09-15T06:22:45.492Z,40.70
2022-09-15T06:23:50.070Z,42.30
2022-09-15T06:24:46.462Z,41.50
2022-09-15T06:25:45.456Z,40.80
2022-09-15T06:26:45.491Z,36.60
2022-09-15T06:27:45.465Z,41.10
2022-09-15T06:28:45.420Z,34.70
2022-09-15T06:29:45.435Z,42.00
2022-09-15T06:30:45.397Z,42.10
2022-09-15T06:31:45.490Z,41.80
2022-09-15T06:32:48.202Z,43.10
2022-09-15T06:33:45.498Z,48.30
2022-09-15T06:34:45.373Z,37.90
2022-09-15T06:35:45.339Z,38.80
2022-09-15T06:36:45.331Z,36.40
2022-09-15T06:37:45.433Z,37.90
2022-09-15T06:38:45.322Z,36.00
2022-09-15T06:39:45.365Z,38.50
2022-09-15T06:40:45.290Z,35.70
2022-09-15T06:42:01.644Z,34.80
2022-09-15T06:42:46.260Z,34.40
2022-09-15T06:43:45.498Z,32.40
2022-09-15T06:44:45.251Z,35.80
2022-09-15T06:45:45.267Z,33.70
2022-09-15T06:46:45.213Z,32.90
2022-09-15T06:47:45.205Z,35.60
2022-09-15T06:48:48.095Z,32.00
2022-09-15T06:49:45.203Z,35.10
2022-09-15T06:50:45.171Z,36.00
2022-09-15T06:51:45.446Z,34.70
2022-09-15T06:52:45.148Z,37.70
2022-09-15T06:53:45.135Z,37.40
2022-09-15T06:54:45.158Z,38.00
2022-09-15T06:55:45.116Z,37.00
2022-09-15T06:56:45.129Z,37.00
2022-09-15T06:57:45.094Z,34.00
2022-09-15T06:58:45.082Z,37.40
2022-09-15T06:59:45.104Z,34.40
2022-09-15T07:00:45.058Z,32.90
2022-09-15T07:01:45.067Z,36.40
2022-09-15T07:02:45.136Z,37.70
2022-09-15T07:03:45.100Z,36.30
2022-09-15T07:04:45.032Z,34.00
2022-09-15T07:05:45.001Z,37.10
2022-09-15T07:06:45.012Z,32.00
2022-09-15T07:07:44.978Z,37.90
2022-09-15T07:08:44.984Z,33.00
2022-09-15T07:09:48.803Z,34.30
2022-09-15T07:10:44.960Z,30.70
2022-09-15T07:11:44.931Z,36.30
2022-09-15T07:12:44.924Z,33.70
2022-09-15T07:13:44.908Z,34.90
2022-09-15T07:14:44.918Z,31.30
2022-09-15T07:15:44.926Z,32.40
2022-09-15T07:16:44.954Z,34.00
2022-09-15T07:17:44.865Z,33.70
2022-09-15T07:18:44.853Z,34.30
2022-09-15T07:19:44.846Z,34.20
2022-09-15T07:20:44.829Z,38.90
2022-09-15T07:21:44.846Z,36.90
2022-09-15T07:22:44.804Z,35.60
2022-09-15T07:23:44.938Z,36.70
2022-09-15T07:24:44.786Z,33.80
2022-09-15T07:25:44.771Z,32.10
2022-09-15T07:26:44.762Z,34.50
2022-09-15T07:27:44.753Z,33.10
2022-09-15T07:28:44.764Z,31.30
2022-09-15T07:29:44.726Z,31.60
2022-09-15T07:30:44.779Z,31.80
2022-09-15T07:31:44.785Z,30.90
2022-09-15T07:32:44.695Z,28.60
2022-09-15T07:33:44.739Z,26.40
2022-09-15T07:34:44.669Z,25.60
2022-09-15T07:35:44.658Z,29.40
2022-09-15T07:36:44.651Z,28.70
2022-09-15T07:37:44.642Z,28.20
2022-09-15T07:38:44.646Z,27.50
2022-09-15T07:39:44.677Z,28.80
2022-09-15T07:40:44.603Z,24.90
2022-09-15T07:41:44.614Z,25.30
2022-09-15T07:42:44.577Z,24.70
2022-09-15T07:43:44.571Z,27.30
2022-09-15T07:44:44.554Z,23.30
2022-09-15T07:45:44.604Z,24.70
2022-09-15T07:46:44.535Z,28.10
2022-09-15T07:47:44.540Z,24.10
2022-09-15T07:48:44.570Z,25.40
2022-09-15T07:49:44.507Z,26.00
2022-09-15T07:50:44.512Z,26.90
2022-09-15T07:51:44.478Z,23.10
2022-09-15T07:52:44.487Z,25.80
2022-09-15T07:53:44.455Z,25.50
2022-09-15T07:54:44.450Z,24.60
2022-09-15T07:55:44.431Z,23.00
2022-09-15T07:56:44.442Z,24.80
2022-09-15T07:57:44.410Z,24.00
2022-09-15T07:58:44.394Z,24.90
2022-09-15T07:59:44.386Z,25.30
2022-09-15T08:00:44.413Z,22.30
2022-09-15T08:01:44.421Z,26.60
2022-09-15T08:02:44.382Z,24.50
2022-09-15T08:03:44.386Z,26.00
2022-09-15T08:04:44.327Z,23.00
2022-09-15T08:05:46.032Z,25.30
2022-09-15T08:06:44.325Z,25.00
2022-09-15T08:07:44.294Z,25.70
2022-09-15T08:08:44.306Z,24.90
2022-09-15T08:09:44.274Z,22.90
2022-09-15T08:10:44.285Z,25.40
2022-09-15T08:11:44.249Z,23.90
2022-09-15T08:12:44.239Z,24.00
2022-09-15T08:13:44.250Z,21.70
2022-09-15T08:14:44.215Z,24.10
2022-09-15T08:15:44.256Z,22.80
2022-09-15T08:16:44.191Z,23.50
2022-09-15T08:17:44.206Z,23.80
2022-09-15T08:18:44.173Z,22.70
2022-09-15T08:19:44.173Z,23.80
2022-09-15T08:20:44.148Z,20.90
2022-09-15T08:21:44.136Z,21.00
2022-09-15T08:22:44.143Z,22.90
2022-09-15T08:23:44.116Z,20.20
2022-09-15T08:24:44.100Z,21.70
2022-09-15T08:25:44.091Z,22.50
2022-09-15T08:26:44.108Z,21.60
2022-09-15T08:27:44.069Z,22.60
2022-09-15T08:28:44.075Z,21.10
2022-09-15T08:29:44.070Z,19.40
2022-09-15T08:30:44.037Z,20.70
2022-09-15T08:31:44.078Z,20.60
2022-09-15T08:32:44.013Z,20.70
2022-09-15T08:33:45.879Z,20.20
2022-09-15T08:34:43.988Z,20.60
2022-09-15T08:35:44.014Z,19.00
2022-09-15T08:36:43.989Z,21.00
2022-09-15T08:37:43.958Z,20.00
2022-09-15T08:38:43.942Z,20.80
2022-09-15T08:39:43.934Z,18.30
2022-09-15T08:40:43.923Z,20.90
2022-09-15T08:41:43.932Z,18.80
2022-09-15T08:42:45.009Z,17.10
2022-09-15T08:43:43.936Z,19.10
2022-09-15T08:44:43.876Z,17.80
2022-09-15T08:45:43.887Z,19.60
2022-09-15T08:46:44.178Z,18.00
2022-09-15T08:47:43.842Z,19.90
2022-09-15T08:48:43.830Z,19.60
2022-09-15T08:49:52.470Z,19.10
2022-09-15T08:50:44.806Z,16.60
2022-09-15T08:51:43.839Z,16.00
2022-09-15T08:52:43.789Z,17.80
2022-09-15T08:53:43.795Z,18.00
2022-09-15T08:54:43.761Z,17.30
2022-09-15T08:55:43.751Z,17.40
2022-09-15T08:56:43.761Z,16.90
2022-09-15T08:57:43.733Z,15.80
2022-09-15T08:58:43.718Z,16.00
2022-09-15T08:59:43.729Z,16.70
2022-09-15T09:00:43.696Z,17.00
2022-09-15T09:01:43.752Z,15.10
2022-09-15T09:02:43.752Z,15.70
2022-09-15T09:03:43.663Z,17.30
2022-09-15T09:04:44.653Z,15.10
2022-09-15T09:05:43.659Z,15.70
2022-09-15T09:06:43.629Z,15.10
2022-09-15T09:07:43.785Z,13.30
2022-09-15T09:08:43.610Z,15.70
2022-09-15T09:09:43.599Z,14.40
2022-09-15T09:10:43.595Z,15.60
2022-09-15T09:11:43.594Z,16.30
2022-09-15T09:12:43.566Z,14.10
2022-09-15T09:13:43.552Z,15.80
2022-09-15T09:14:43.547Z,14.00
2022-09-15T09:15:43.657Z,13.60
2022-09-15T09:16:43.523Z,13.70
2022-09-15T09:17:43.506Z,13.90
2022-09-15T09:18:43.495Z,13.20
2022-09-15T09:19:43.480Z,13.40
2022-09-15T09:20:43.475Z,12.40
2022-09-15T09:21:43.480Z,13.40
2022-09-15T09:22:43.449Z,12.80
2022-09-15T09:23:43.479Z,11.10
2022-09-15T09:24:43.425Z,13.50
2022-09-15T09:25:43.415Z,12.80
2022-09-15T09:26:43.402Z,11.90
2022-09-15T09:27:43.410Z,13.30
2022-09-15T09:28:43.380Z,10.80
2022-09-15T09:29:43.368Z,11.30
2022-09-15T09:30:43.440Z,12.20
2022-09-15T09:31:43.363Z,15.10
2022-09-15T09:32:43.336Z,10.00
2022-09-15T09:33:47.528Z,12.60
2022-09-15T09:34:44.313Z,10.40
2022-09-15T09:35:43.374Z,12.10
2022-09-15T09:36:43.290Z,12.20
2022-09-15T09:37:43.277Z,10.30
2022-09-15T09:38:43.266Z,12.30
2022-09-15T09:39:43.291Z,10.60
2022-09-15T09:40:43.245Z,9.90
2022-09-15T09:41:43.237Z,10.30
2022-09-15T09:42:43.223Z,10.50
2022-09-15T09:43:43.208Z,9.80
2022-09-15T09:44:43.218Z,10.30
2022-09-15T09:45:43.205Z,9.90
2022-09-15T09:46:43.225Z,10.20
2022-09-15T09:47:43.182Z,9.30
2022-09-15T09:48:43.154Z,9.50
2022-09-15T09:49:43.138Z,9.80
2022-09-15T09:50:43.132Z,10.50
2022-09-15T09:51:43.122Z,10.50
2022-09-15T09:52:43.130Z,9.20
2022-09-15T09:53:43.115Z,10.30
2022-09-15T09:54:43.086Z,8.30
2022-09-15T09:55:43.105Z,9.80
2022-09-15T09:56:43.088Z,9.30
2022-09-15T09:57:43.056Z,10.10
2022-09-15T09:58:43.060Z,7.50
2022-09-15T09:59:43.028Z,8.80
2022-09-15T10:00:43.016Z,9.10
2022-09-15T10:01:43.072Z,7.80
2022-09-15T10:02:42.996Z,10.30
2022-09-15T10:03:43.006Z,7.10
2022-09-15T10:04:43.013Z,7.20
2022-09-15T10:05:42.956Z,7.90
2022-09-15T10:06:42.949Z,7.90
2022-09-15T10:07:42.967Z,7.50
2022-09-15T10:08:42.928Z,8.10
2022-09-15T10:09:42.936Z,10.00
2022-09-15T10:10:42.903Z,7.70
2022-09-15T10:11:42.906Z,9.10
2022-09-15T10:12:42.881Z,8.40
2022-09-15T10:13:42.871Z,6.90
2022-09-15T10:14:42.876Z,6.40
2022-09-15T10:15:42.854Z,8.30
2022-09-15T10:16:42.889Z,6.80
2022-09-15T10:17:42.843Z,7.90
2022-09-15T10:18:42.816Z,6.00
2022-09-15T10:19:42.799Z,6.00
2022-09-15T10:20:42.792Z,8.00
2022-09-15T10:21:42.806Z,6.20
2022-09-15T10:22:42.767Z,7.10
2022-09-15T10:23:42.756Z,8.40
2022-09-15T10:24:42.774Z,6.60
2022-09-15T10:25:59.153Z,5.50
2022-09-15T10:26:43.725Z,6.00
2022-09-15T10:27:42.747Z,4.40
2022-09-15T10:28:42.703Z,4.30
2022-09-15T10:29:42.713Z,5.50
2022-09-15T10:30:42.682Z,6.00
2022-09-15T10:31:42.729Z,4.90
2022-09-15T10:32:42.678Z,5.20
2022-09-15T10:33:42.644Z,5.20
2022-09-15T10:34:42.664Z,5.90
2022-09-15T10:35:42.620Z,5.00
2022-09-15T10:36:42.609Z,4.10
2022-09-15T10:37:42.597Z,5.90
2022-09-15T10:38:42.685Z,3.90
2022-09-15T10:39:42.601Z,4.80
2022-09-15T10:40:42.570Z,5.20
2022-09-15T10:41:42.551Z,3.80
2022-09-15T10:42:42.543Z,5.40
2022-09-15T10:43:42.546Z,3.90
2022-09-15T10:44:42.543Z,4.80
2022-09-15T10:45:42.538Z,3.40
2022-09-15T10:46:42.498Z,4.40
2022-09-15T10:47:42.483Z,2.90
2022-09-15T10:48:42.475Z,4.30
2022-09-15T10:49:42.481Z,5.30
2022-09-15T10:50:42.457Z,4.40
2022-09-15T10:51:42.440Z,3.00
2022-09-15T10:52:42.431Z,4.20
2022-09-15T10:53:42.469Z,4.10
2022-09-15T10:54:42.437Z,4.00
2022-09-15T10:55:52.926Z,3.20
2022-09-15T10:56:43.382Z,3.10
2022-09-15T10:57:42.376Z,1.90
2022-09-15T10:58:45.143Z,5.00
2022-09-15T10:59:42.448Z,3.80
2022-09-15T11:00:42.566Z,4.40
2022-09-15T11:01:42.355Z,3.50
2022-09-15T11:02:42.323Z,5.50
2022-09-15T11:03:42.334Z,3.80
2022-09-15T11:04:42.292Z,4.90
2022-09-15T11:05:42.280Z,4.40
2022-09-15T11:06:42.274Z,3.70
2022-09-15T11:07:42.259Z,4.00
2022-09-15T11:08:42.287Z,5.00
2022-09-15T11:09:42.235Z,3.20
2022-09-15T11:10:42.228Z,3.90
2022-09-15T11:11:42.214Z,4.90
2022-09-15T11:12:42.204Z,3.60
2022-09-15T11:13:42.209Z,5.10
2022-09-15T11:14:42.191Z,4.50
2022-09-15T11:15:42.231Z,5.30
2022-09-15T11:16:42.229Z,2.60
2022-09-15T11:17:42.165Z,2.70
2022-09-15T11:18:42.158Z,2.70
2022-09-15T11:19:42.357Z,3.40
2022-09-15T11:20:42.116Z,3.60
2022-09-15T11:21:42.101Z,4.70
2022-09-15T11:22:44.107Z,3.20
2022-09-15T11:23:43.095Z,5.80
2022-09-15T11:24:42.088Z,3.90
2022-09-15T11:25:42.064Z,4.50
2022-09-15T11:26:42.047Z,5.00
2022-09-15T11:27:42.035Z,3.20
2022-09-15T11:28:42.049Z,5.00
2022-09-15T11:29:42.018Z,3.50
2022-09-15T11:30:46.999Z,2.90
2022-09-15T11:31:43.151Z,3.30
2022-09-15T11:32:41.982Z,2.50
2022-09-15T11:33:42.027Z,3.30
2022-09-15T11:34:41.963Z,4.20
2022-09-15T11:35:41.968Z,3.20
2022-09-15T11:36:41.935Z,2.40
2022-09-15T11:37:41.921Z,2.90
2022-09-15T11:38:41.914Z,4.50
2022-09-15T11:39:41.899Z,4.30
2022-09-15T11:40:41.910Z,3.00
2022-09-15T11:41:41.877Z,4.10
2022-09-15T11:42:41.873Z,2.30
2022-09-15T11:43:41.858Z,2.90
2022-09-15T11:44:41.867Z,4.50
2022-09-15T11:45:41.831Z,3.80
2022-09-15T11:46:41.923Z,3.60
2022-09-15T11:47:41.842Z,1.60
2022-09-15T11:48:41.875Z,4.40
2022-09-15T11:49:41.808Z,5.20
2022-09-15T11:50:41.782Z,3.90
2022-09-15T11:51:41.786Z,4.50
2022-09-15T11:52:41.755Z,5.90
2022-09-15T11:53:41.747Z,4.40
2022-09-15T11:54:41.755Z,4.70
2022-09-15T11:55:41.719Z,3.40
2022-09-15T11:56:41.731Z,4.40
2022-09-15T11:57:41.701Z,4.00
2022-09-15T11:58:41.709Z,2.70
2022-09-15T11:59:41.675Z,3.80
2022-09-15T12:00:41.687Z,3.10
2022-09-15T12:01:41.684Z,2.60
2022-09-15T12:02:41.675Z,2.70
2022-09-15T12:03:41.745Z,2.00
2022-09-15T12:04:41.620Z,3.30
2022-09-15T12:05:41.631Z,4.70
2022-09-15T12:06:45.573Z,4.80
2022-09-15T12:07:41.609Z,3.20
2022-09-15T12:08:41.574Z,3.40
2022-09-15T12:09:41.561Z,5.50
2022-09-15T12:10:41.553Z,3.10
2022-09-15T12:11:41.542Z,2.60
2022-09-15T12:12:41.551Z,3.60
2022-09-15T12:13:41.522Z,3.50
2022-09-15T12:14:41.530Z,2.40
2022-09-15T12:15:41.531Z,3.40
2022-09-15T12:16:41.490Z,3.60
2022-09-15T12:17:41.473Z,4.20
2022-09-15T12:18:43.832Z,3.00
2022-09-15T12:19:42.472Z,3.70
2022-09-15T12:20:41.461Z,4.70
2022-09-15T12:21:41.429Z,3.70
2022-09-15T12:22:41.424Z,2.80
2022-09-15T12:23:41.424Z,4.50
2022-09-15T12:24:41.417Z,3.00
2022-09-15T12:25:41.382Z,4.40
2022-09-15T12:26:41.375Z,4.90
2022-09-15T12:27:41.365Z,3.10
2022-09-15T12:28:41.374Z,2.50
2022-09-15T12:29:42.424Z,3.10
2022-09-15T12:30:41.349Z,5.30
2022-09-15T12:31:41.374Z,5.50
2022-09-15T12:32:41.304Z,3.70
2022-09-15T12:33:41.293Z,2.90
2022-09-15T12:34:41.281Z,2.70
2022-09-15T12:35:41.308Z,2.50
2022-09-15T12:36:41.263Z,4.10
2022-09-15T12:37:41.246Z,4.80
2022-09-15T12:38:41.239Z,3.30
2022-09-15T12:39:41.224Z,2.70
2022-09-15T12:40:41.288Z,3.10
2022-09-15T12:41:41.221Z,3.30
2022-09-15T12:42:41.195Z,3.50
2022-09-15T12:43:41.191Z,2.60
2022-09-15T12:44:41.171Z,4.00
2022-09-15T12:45:41.162Z,3.40
2022-09-15T12:46:41.197Z,2.60
2022-09-15T12:47:41.136Z,2.70
2022-09-15T12:48:43.363Z,2.90
2022-09-15T12:49:41.112Z,4.20
2022-09-15T12:50:41.104Z,4.90
2022-09-15T12:51:41.128Z,3.00
2022-09-15T12:52:41.106Z,3.10
2022-09-15T12:53:42.462Z,4.40
2022-09-15T12:54:41.063Z,3.50
2022-09-15T12:55:41.046Z,1.60
2022-09-15T12:56:41.035Z,1.90
2022-09-15T12:57:41.040Z,2.30
2022-09-15T12:58:41.011Z,3.30
2022-09-15T12:59:40.999Z,3.90